LGSK Airport Information

Runway Information
Runway 02 Length 5341 ft width 98 ft
Elevation 9 ft Threshold 190 ft Heading 19
Runway 20 Length 5341 ft Width 98 ft
Elevation 54 ft Threshold 0 ft Heading 199
Airport Frequencies
Type A/G Name SKIATHOS R Frequency 563.7 MHZ
Type APP Name SKIATHOS A Frequency 126.05 MHZ
Type TWR Name SKIATHOS T Frequency 126.05 MHZ
Airport Navaids
Type NDB Name Skiathos Frequency 326 KHZ
Airport Weather Information & NOTAM
ADDS - METARS form results

(1853 UTC 20 September 2020)
Data provider http://aviationweather.gov/metar/data/
 
Forecast for: LGSK (SKIATHOS ISLAND , GR)
Text: TAF LGSK 201700Z 2018/2103 36014KT 9999 FEW025
Forecast period: 1800 UTC 20 September 2020 to 0300 UTC 21 September 2020
Forecast type: FROM: standard forecast or significant change
Winds: from the N (360 degrees) at 16 MPH (14 knots; 7.2 m/s)
Visibility: 6 or more miles (10+ km)
Ceiling: at least 12,000 feet AGL
Clouds: few clouds at 2500 feet AGL
Weather: no significant weather forecast for this period